Time;durP1;ratioP1;P1;durP2;ratioP2;P2;SDS_P1;SDS_P2;PMS_P1;PMS_P2;Temp;Humidity;BMP_temperature;BMP_pressure;BME280_temperature;BME280_humidity;BME280_pressure;Samples;Min_cycle;Max_cycle;Signal;HPM_P1;HPM_P2
2021/01/16 00:00:54;;;;;;;1.37;0.80;;;2.00;83.40;;;;;;6190595;23;20012;-88
2021/01/16 00:03:20;;;;;;;0.80;0.20;;;2.00;83.40;;;;;;6190564;23;19996;-87
2021/01/16 00:05:47;;;;;;;2.27;0.90;;;2.00;83.40;;;;;;6191132;23;20368;-88
2021/01/16 00:08:16;;;;;;;2.93;1.50;;;1.90;83.30;;;;;;6190441;23;20272;-89
2021/01/16 00:10:43;;;;;;;1.90;0.87;;;1.90;83.30;;;;;;6189641;23;20009;-87
2021/01/16 00:13:14;;;;;;;3.40;0.60;;;1.90;83.20;;;;;;6165185;23;20280;-88
2021/01/16 00:15:41;;;;;;;1.90;1.02;;;1.90;83.10;;;;;;6165590;23;20011;-88
2021/01/16 00:18:09;;;;;;;2.47;1.33;;;1.90;83.10;;;;;;6190469;23;19992;-89
2021/01/16 00:20:37;;;;;;;7.43;0.50;;;1.80;83.20;;;;;;6192249;23;20383;-87
2021/01/16 00:23:04;;;;;;;1.07;0.73;;;1.80;83.30;;;;;;6189797;23;20001;-87
2021/01/16 00:25:30;;;;;;;2.30;0.47;;;1.80;83.30;;;;;;6189353;23;20008;-88
2021/01/16 00:27:57;;;;;;;5.30;1.27;;;1.80;83.30;;;;;;6190940;23;20001;-87
2021/01/16 00:30:25;;;;;;;2.80;1.43;;;1.80;83.30;;;;;;6189550;23;20371;-88
2021/01/16 00:32:52;;;;;;;1.57;1.20;;;1.80;83.40;;;;;;6191950;23;20012;-87
2021/01/16 00:35:18;;;;;;;0.57;0.50;;;1.70;83.40;;;;;;6191530;23;20368;-88
2021/01/16 00:37:49;;;;;;;1.37;0.83;;;1.70;84.40;;;;;;6164818;23;20000;-88
2021/01/16 00:40:17;;;;;;;0.98;0.40;;;1.60;83.60;;;;;;6165136;23;20004;-89
2021/01/16 00:42:45;;;;;;;5.83;1.87;;;1.70;83.60;;;;;;6189874;23;19997;-90
2021/01/16 00:45:12;;;;;;;5.10;1.07;;;1.60;83.60;;;;;;6191477;23;19996;-89
2021/01/16 00:47:39;;;;;;;1.83;1.07;;;1.60;83.70;;;;;;6190125;23;20005;-90
2021/01/16 00:50:06;;;;;;;4.97;1.00;;;1.60;83.70;;;;;;6165079;23;20388;-90
2021/01/16 00:52:33;;;;;;;3.63;1.80;;;1.60;83.70;;;;;;6190018;23;20011;-88
2021/01/16 00:54:59;;;;;;;10.90;1.27;;;1.70;83.80;;;;;;6189710;23;20237;-88
2021/01/16 00:57:27;;;;;;;0.70;0.60;;;1.70;83.70;;;;;;6189739;23;19993;-87
2021/01/16 00:59:53;;;;;;;0.97;0.80;;;1.70;83.70;;;;;;6191574;23;20004;-88
2021/01/16 01:02:20;;;;;;;1.80;0.47;;;1.60;83.70;;;;;;6189775;23;20032;-88
2021/01/16 01:04:47;;;;;;;2.13;1.33;;;1.60;83.70;;;;;;6164989;23;20384;-88
2021/01/16 01:07:13;;;;;;;3.50;1.03;;;1.60;83.70;;;;;;6190165;23;19997;-88
2021/01/16 01:09:43;;;;;;;2.33;1.43;;;1.60;83.60;;;;;;6190082;23;20407;-87
2021/01/16 01:12:10;;;;;;;3.43;1.20;;;1.60;83.60;;;;;;6191524;23;19997;-88
2021/01/16 01:14:37;;;;;;;2.87;0.93;;;1.60;83.60;;;;;;6191134;23;19996;-87
2021/01/16 01:17:15;;;;;;;9.00;1.60;;;1.60;83.60;;;;;;6190153;23;20009;-87
2021/01/16 01:19:42;;;;;;;4.83;1.20;;;1.70;83.70;;;;;;6192975;23;20008;-87
2021/01/16 01:22:09;;;;;;;7.80;1.77;;;1.70;83.70;;;;;;6191365;23;20000;-88
2021/01/16 01:24:36;;;;;;;3.33;1.60;;;1.70;83.40;;;;;;6191027;23;20265;-88
2021/01/16 01:27:03;;;;;;;5.20;0.60;;;1.80;83.20;;;;;;6190637;23;20020;-87
2021/01/16 01:29:29;;;;;;;4.43;2.03;;;1.80;83.10;;;;;;6190133;23;19997;-88
2021/01/16 01:31:56;;;;;;;3.63;1.73;;;1.80;82.90;;;;;;6189456;23;20020;-88
2021/01/16 01:34:22;;;;;;;7.63;1.20;;;1.90;83.00;;;;;;6188752;23;20021;-88
2021/01/16 01:36:48;;;;;;;1.03;0.93;;;1.80;82.90;;;;;;6189850;23;20000;-88
2021/01/16 01:39:15;;;;;;;2.17;1.00;;;1.80;82.90;;;;;;6189750;23;19993;-87
2021/01/16 01:41:41;;;;;;;2.00;1.33;;;1.80;82.90;;;;;;6164299;23;20005;-87
2021/01/16 01:44:07;;;;;;;3.80;1.53;;;1.80;83.00;;;;;;6164472;23;20023;-89
2021/01/16 01:46:34;;;;;;;0.83;0.47;;;1.70;83.10;;;;;;6191249;23;20015;-89
2021/01/16 01:49:01;;;;;;;1.17;1.00;;;1.60;83.30;;;;;;6190767;23;20013;-87
2021/01/16 01:51:27;;;;;;;4.77;1.63;;;1.60;83.40;;;;;;6193144;23;19997;-88
2021/01/16 01:53:55;;;;;;;10.37;2.20;;;1.60;83.50;;;;;;6192601;23;20008;-88
2021/01/16 01:56:22;;;;;;;1.87;1.30;;;1.60;83.60;;;;;;6191690;23;20008;-87
2021/01/16 01:58:49;;;;;;;1.83;0.90;;;1.60;83.60;;;;;;6191778;23;19996;-88
2021/01/16 02:01:17;;;;;;;1.90;1.20;;;1.60;83.50;;;;;;6217304;23;20005;-88
2021/01/16 02:03:43;;;;;;;1.37;0.60;;;1.60;83.40;;;;;;6165850;23;20005;-87
2021/01/16 02:06:09;;;;;;;2.93;1.73;;;1.60;83.30;;;;;;6192500;23;20001;-90
2021/01/16 02:08:36;;;;;;;3.23;1.27;;;1.70;83.30;;;;;;6192619;23;20008;-89
2021/01/16 02:11:02;;;;;;;9.90;1.20;;;1.70;83.20;;;;;;6192385;23;20008;-90
2021/01/16 02:13:28;;;;;;;5.50;2.20;;;1.70;83.20;;;;;;6191795;23;20008;-88
2021/01/16 02:16:15;;;;;;;1.97;1.13;;;1.70;83.00;;;;;;6165793;23;20012;-90
2021/01/16 02:18:43;;;;;;;1.13;0.57;;;1.70;83.00;;;;;;6185548;23;20268;-90
2021/01/16 02:21:11;;;;;;;0.77;0.63;;;1.70;83.00;;;;;;6166845;23;20380;-89
2021/01/16 02:24:05;;;;;;;1.80;1.17;;;1.70;83.00;;;;;;6191499;23;20276;-87
2021/01/16 02:26:44;;;;;;;4.93;1.57;;;1.70;82.90;;;;;;6218292;23;20016;-87
2021/01/16 02:29:10;;;;;;;0.90;0.77;;;1.70;82.90;;;;;;6168042;23;20004;-87
2021/01/16 02:31:57;;;;;;;2.10;1.50;;;1.80;82.90;;;;;;6191958;23;20012;-87
2021/01/16 02:34:27;;;;;;;2.43;0.77;;;1.80;82.70;;;;;;6195409;23;20005;-88
2021/01/16 02:37:07;;;;;;;1.97;0.67;;;1.80;82.60;;;;;;6190909;23;20001;-88
2021/01/16 02:39:55;;;;;;;3.67;0.90;;;1.80;82.60;;;;;;6194088;23;20000;-88
2021/01/16 02:42:38;;;;;;;1.53;0.63;;;1.70;82.80;;;;;;6190481;23;19997;-88
2021/01/16 02:45:07;;;;;;;1.37;0.80;;;1.70;82.80;;;;;;6190506;23;20000;-88
2021/01/16 02:47:54;;;;;;;1.20;0.77;;;1.60;82.90;;;;;;6193046;23;20001;-88
2021/01/16 02:50:21;;;;;;;3.93;1.77;;;1.60;82.90;;;;;;6214627;23;20407;-88
2021/01/16 02:52:48;;;;;;;2.03;1.27;;;1.50;82.90;;;;;;6191095;23;19996;-88
2021/01/16 02:55:18;;;;;;;1.23;0.50;;;1.50;83.00;;;;;;6165916;23;20020;-88
2021/01/16 02:57:44;;;;;;;2.87;0.83;;;1.50;83.00;;;;;;6191653;23;20264;-88
2021/01/16 03:00:16;;;;;;;3.37;1.13;;;1.40;83.00;;;;;;6165843;23;19997;-88
2021/01/16 03:02:43;;;;;;;1.90;0.40;;;1.40;83.00;;;;;;6191206;23;20004;-87
2021/01/16 03:05:09;;;;;;;2.53;0.80;;;1.40;83.80;;;;;;6188978;23;19997;-87
2021/01/16 03:07:36;;;;;;;4.37;2.00;;;1.50;83.00;;;;;;6191557;23;20432;-87
2021/01/16 03:10:07;;;;;;;2.77;0.73;;;1.50;82.90;;;;;;6190721;23;19997;-87
2021/01/16 03:12:33;;;;;;;1.17;0.80;;;1.50;82.80;;;;;;6192006;23;19997;-89
2021/01/16 03:15:20;;;;;;;0.57;0.50;;;1.50;82.80;;;;;;6164658;23;20009;-89
2021/01/16 03:17:54;;;;;;;2.90;1.80;;;1.50;82.80;;;;;;6188503;23;20431;-87
2021/01/16 03:20:22;;;;;;;0.47;0.13;;;1.50;82.80;;;;;;6190368;23;20007;-88
2021/01/16 03:22:49;;;;;;;3.90;1.43;;;1.60;82.80;;;;;;6190992;23;20415;-88
2021/01/16 03:25:19;;;;;;;6.53;1.67;;;1.60;82.60;;;;;;6192060;23;20000;-88
2021/01/16 03:27:47;;;;;;;1.73;0.73;;;1.70;82.50;;;;;;6192501;23;20372;-89
2021/01/16 03:30:13;;;;;;;1.63;1.00;;;1.80;82.30;;;;;;6164372;23;20001;-88
2021/01/16 03:32:41;;;;;;;0.90;0.67;;;1.80;82.20;;;;;;6190141;23;20004;-87
2021/01/16 03:35:08;;;;;;;1.33;0.70;;;1.80;82.20;;;;;;6189930;23;20023;-88
2021/01/16 03:37:34;;;;;;;0.73;0.37;;;1.70;82.20;;;;;;6165478;23;20012;-88
2021/01/16 03:40:01;;;;;;;3.40;0.43;;;1.70;82.40;;;;;;6164884;23;20391;-88
2021/01/16 03:42:27;;;;;;;1.13;0.93;;;1.70;82.50;;;;;;6191693;23;20000;-87
2021/01/16 03:44:53;;;;;;;3.30;0.90;;;1.60;83.30;;;;;;6188813;23;20005;-88
2021/01/16 03:47:20;;;;;;;1.73;1.10;;;1.60;82.70;;;;;;6189984;23;20016;-87
2021/01/16 03:49:46;;;;;;;3.60;1.23;;;1.60;82.70;;;;;;6189223;23;20013;-87
2021/01/16 03:52:16;;;;;;;3.10;1.13;;;1.60;82.70;;;;;;6189252;23;20026;-87
2021/01/16 03:54:43;;;;;;;4.47;1.17;;;1.70;82.60;;;;;;6192517;23;20177;-88
2021/01/16 03:57:09;;;;;;;1.13;0.67;;;1.70;82.50;;;;;;6189322;23;20266;-89
2021/01/16 03:59:36;;;;;;;3.00;1.10;;;1.70;82.50;;;;;;6165035;23;20008;-88
2021/01/16 04:02:02;;;;;;;2.43;1.47;;;1.80;82.40;;;;;;6190525;23;20380;-89
2021/01/16 04:04:29;;;;;;;1.17;0.27;;;1.80;82.40;;;;;;6190622;23;20005;-88
2021/01/16 04:06:55;;;;;;;2.30;1.10;;;1.80;82.30;;;;;;6191952;23;20000;-87
2021/01/16 04:09:22;;;;;;;2.23;1.50;;;1.80;82.30;;;;;;6191930;23;20004;-87
2021/01/16 04:11:48;;;;;;;1.10;0.63;;;1.80;82.30;;;;;;6190682;23;19997;-87
2021/01/16 04:14:15;;;;;;;0.30;0.23;;;1.80;82.30;;;;;;6190366;23;20332;-87
2021/01/16 04:16:42;;;;;;;0.60;0.47;;;1.80;82.30;;;;;;6215093;23;20407;-89
2021/01/16 04:19:09;;;;;;;1.27;0.83;;;1.80;82.50;;;;;;6216749;23;19996;-88
2021/01/16 04:21:35;;;;;;;4.03;1.00;;;1.70;82.50;;;;;;6164667;23;19997;-88
2021/01/16 04:24:01;;;;;;;5.63;0.70;;;1.70;82.60;;;;;;6191940;23;20007;-87
2021/01/16 04:26:28;;;;;;;2.73;0.67;;;1.70;82.70;;;;;;6164674;23;20399;-88
2021/01/16 04:28:54;;;;;;;11.57;1.80;;;1.70;82.60;;;;;;6164621;23;20018;-89
2021/01/16 04:31:20;;;;;;;3.07;1.20;;;1.70;82.50;;;;;;6164141;23;20012;-89
2021/01/16 04:33:47;;;;;;;0.50;0.43;;;1.70;82.50;;;;;;6188931;23;20020;-87
2021/01/16 04:36:13;;;;;;;0.37;0.20;;;1.70;82.40;;;;;;6189669;23;20284;-89
2021/01/16 04:38:39;;;;;;;0.90;0.30;;;1.80;82.40;;;;;;6191637;23;20008;-87
2021/01/16 04:41:06;;;;;;;0.23;0.20;;;1.80;82.40;;;;;;6191653;23;19996;-87
2021/01/16 04:43:32;;;;;;;5.50;0.43;;;1.80;82.30;;;;;;6189806;23;20379;-88
2021/01/16 04:46:06;;;;;;;0.40;0.40;;;1.90;82.30;;;;;;6190248;23;20012;-87
2021/01/16 04:48:36;;;;;;;0.60;0.40;;;1.90;82.20;;;;;;6164833;23;20004;-88
2021/01/16 04:51:05;;;;;;;0.70;0.60;;;2.00;82.10;;;;;;6189914;23;20009;-87
2021/01/16 04:53:40;;;;;;;3.40;0.60;;;2.00;82.00;;;;;;6164341;23;20001;-88
2021/01/16 04:56:09;;;;;;;2.67;1.83;;;2.00;82.10;;;;;;6192070;23;20441;-88
2021/01/16 04:58:36;;;;;;;0.37;0.30;;;2.00;82.10;;;;;;6191888;23;19992;-87
2021/01/16 05:01:04;;;;;;;0.63;0.53;;;2.00;82.10;;;;;;6188275;23;20395;-87
2021/01/16 05:03:37;;;;;;;0.53;0.50;;;2.00;82.10;;;;;;6165033;23;19996;-87
2021/01/16 05:06:08;;;;;;;1.20;0.43;;;1.90;82.00;;;;;;6192026;23;20008;-88
2021/01/16 05:08:36;;;;;;;;;;;1.90;82.20;;;;;;6190304;23;20016;-88
2021/01/16 05:11:04;;;;;;;1.87;0.77;;;1.80;82.20;;;;;;6163615;23;19911;-88
2021/01/16 05:13:37;;;;;;;2.13;0.90;;;1.80;82.30;;;;;;6190401;23;20004;-88
2021/01/16 05:16:04;;;;;;;1.03;0.50;;;1.80;82.40;;;;;;6191886;23;20013;-91
2021/01/16 05:18:30;;;;;;;0.20;0.20;;;1.80;82.30;;;;;;6191614;23;20000;-90
2021/01/16 05:20:57;;;;;;;6.03;1.33;;;1.80;82.20;;;;;;6165945;23;20012;-89
2021/01/16 05:23:23;;;;;;;0.30;0.20;;;1.70;82.30;;;;;;6190849;23;20269;-88
2021/01/16 05:25:53;;;;;;;1.07;0.73;;;1.70;82.40;;;;;;6190682;23;20010;-89
2021/01/16 05:28:20;;;;;;;0.30;0.30;;;1.70;82.40;;;;;;6220038;23;19996;-90
2021/01/16 05:31:00;;;;;;;0.77;0.53;;;1.70;82.40;;;;;;6192724;23;20005;-90
2021/01/16 05:33:28;;;;;;;0.63;0.40;;;1.80;82.50;;;;;;6192959;23;20268;-89
2021/01/16 05:35:59;;;;;;;1.83;0.60;;;1.80;82.30;;;;;;6166888;23;20024;-90
2021/01/16 05:38:45;;;;;;;1.02;0.73;;;1.80;82.30;;;;;;6193708;23;19993;-88
2021/01/16 05:41:13;;;;;;;0.63;0.53;;;1.80;82.30;;;;;;6193622;23;19992;-87
2021/01/16 05:43:41;;;;;;;0.57;0.50;;;1.90;82.30;;;;;;6193213;23;19992;-87
2021/01/16 05:46:16;;;;;;;1.83;1.13;;;2.00;82.10;;;;;;6166333;23;20391;-87
2021/01/16 05:48:43;;;;;;;0.00;0.00;;;2.00;82.00;;;;;;6166799;23;20368;-87
2021/01/16 05:51:09;;;;;;;2.93;0.83;;;2.00;81.80;;;;;;6193182;23;20000;-88
2021/01/16 05:53:36;;;;;;;1.97;0.70;;;2.00;81.90;;;;;;6192953;23;20004;-89
2021/01/16 05:56:02;;;;;;;3.90;1.03;;;1.90;82.10;;;;;;6190152;23;20005;-88
2021/01/16 05:58:33;;;;;;;2.83;0.97;;;1.90;82.20;;;;;;6191880;23;19993;-88
2021/01/16 06:01:09;;;;;;;4.70;1.98;;;1.90;82.30;;;;;;6190570;23;20226;-88
2021/01/16 06:03:37;;;;;;;3.57;0.93;;;1.90;82.20;;;;;;6192073;23;20165;-88
2021/01/16 06:06:10;;;;;;;0.60;0.30;;;2.00;82.20;;;;;;6166851;23;20001;-89
2021/01/16 06:08:49;;;;;;;0.80;0.20;;;2.00;82.00;;;;;;6194588;23;20003;-88
2021/01/16 06:11:16;;;;;;;1.70;0.40;;;2.00;81.90;;;;;;6192040;23;19996;-89
2021/01/16 06:13:43;;;;;;;3.10;0.90;;;1.90;81.90;;;;;;6166440;23;20001;-88
2021/01/16 06:16:14;;;;;;;0.77;0.40;;;1.90;82.10;;;;;;6190215;23;20012;-88
2021/01/16 06:19:01;;;;;;;0.40;0.37;;;1.90;82.20;;;;;;6191621;23;20005;-88
2021/01/16 06:21:29;;;;;;;1.80;0.53;;;1.90;82.10;;;;;;6169239;23;20009;-93
2021/01/16 06:23:59;;;;;;;0.53;0.37;;;2.00;82.20;;;;;;6192568;23;19997;-87
2021/01/16 06:26:27;;;;;;;4.97;0.57;;;2.50;81.70;;;;;;6166283;23;20011;-88
2021/01/16 06:29:03;;;;;;;2.53;0.83;;;2.70;80.60;;;;;;6165621;23;20005;-88
2021/01/16 06:31:31;;;;;;;1.53;0.43;;;2.70;80.40;;;;;;6191461;23;20280;-88
2021/01/16 06:34:01;;;;;;;0.77;0.50;;;2.60;80.70;;;;;;6166633;23;20001;-87
2021/01/16 06:36:29;;;;;;;2.78;1.02;;;2.40;81.10;;;;;;6219501;23;20000;-87
2021/01/16 06:39:07;;;;;;;0.63;0.40;;;2.30;81.40;;;;;;6192806;23;20000;-87
2021/01/16 06:41:35;;;;;;;0.97;0.57;;;2.30;81.70;;;;;;6218453;23;20001;-87
2021/01/16 06:44:01;;;;;;;4.63;1.07;;;2.30;81.80;;;;;;6191437;23;20362;-88
2021/01/16 06:46:41;;;;;;;3.00;0.90;;;2.30;81.70;;;;;;6188761;23;20016;-87
2021/01/16 06:49:17;;;;;;;2.83;1.03;;;2.40;81.70;;;;;;6164311;23;20017;-87
2021/01/16 06:51:44;;;;;;;0.77;0.67;;;2.40;81.60;;;;;;6166565;23;20287;-88
2021/01/16 06:54:10;;;;;;;1.67;0.60;;;2.50;81.50;;;;;;6191388;23;20265;-87
2021/01/16 06:56:39;;;;;;;0.43;0.13;;;2.50;81.40;;;;;;6190246;23;20008;-87
2021/01/16 06:59:11;;;;;;;1.63;0.53;;;2.50;81.40;;;;;;6190517;23;20372;-87
2021/01/16 07:01:38;;;;;;;0.20;0.20;;;2.40;81.40;;;;;;6191970;23;20012;-87
2021/01/16 07:04:04;;;;;;;7.03;0.70;;;2.40;81.70;;;;;;6191021;23;20430;-87
2021/01/16 07:06:46;;;;;;;1.23;0.63;;;2.30;81.70;;;;;;6190925;23;20003;-88
2021/01/16 07:09:19;;;;;;;0.50;0.50;;;2.30;81.90;;;;;;6191345;23;20007;-88
2021/01/16 07:11:47;;;;;;;0.40;0.37;;;2.30;81.90;;;;;;6192407;23;19993;-87
2021/01/16 07:14:13;;;;;;;8.13;1.07;;;2.40;81.90;;;;;;6164758;23;20275;-88
2021/01/16 07:16:43;;;;;;;0.60;0.33;;;2.40;81.80;;;;;;6189391;23;20015;-87
2021/01/16 07:19:19;;;;;;;1.07;0.67;;;2.50;81.70;;;;;;6164866;23;20012;-87
2021/01/16 07:21:46;;;;;;;3.20;0.93;;;2.50;81.60;;;;;;6216123;23;20003;-87
2021/01/16 07:24:12;;;;;;;2.60;0.93;;;2.60;81.60;;;;;;6216014;23;20008;-87
2021/01/16 07:26:45;;;;;;;1.33;0.83;;;2.60;81.40;;;;;;6191895;23;20004;-87
2021/01/16 07:29:11;;;;;;;7.93;1.37;;;2.70;81.40;;;;;;6191388;23;20011;-86
2021/01/16 07:31:40;;;;;;;4.77;2.03;;;2.80;80.90;;;;;;6189568;23;20261;-87
2021/01/16 07:34:07;;;;;;;0.70;0.67;;;2.90;80.90;;;;;;6189933;23;20000;-86
2021/01/16 07:36:37;;;;;;;5.00;0.90;;;2.90;80.90;;;;;;6189526;23;20391;-87
2021/01/16 07:39:05;;;;;;;1.30;0.57;;;2.90;80.90;;;;;;6190654;23;20020;-88
2021/01/16 07:41:32;;;;;;;1.53;0.57;;;2.90;80.90;;;;;;6190493;23;19996;-88
2021/01/16 07:44:11;;;;;;;4.83;1.57;;;2.90;80.90;;;;;;6189557;23;19993;-87
2021/01/16 07:46:41;;;;;;;3.80;0.90;;;2.90;80.90;;;;;;6164042;23;20005;-87
2021/01/16 07:49:08;;;;;;;1.00;0.47;;;2.90;80.90;;;;;;6164816;23;20039;-88
2021/01/16 07:51:38;;;;;;;0.90;0.53;;;2.90;80.90;;;;;;6189731;23;20050;-87
2021/01/16 07:54:10;;;;;;;0.47;0.40;;;2.80;81.00;;;;;;6188940;23;19992;-88
2021/01/16 07:56:43;;;;;;;0.00;0.00;;;2.70;81.20;;;;;;6164896;23;20005;-87
2021/01/16 07:59:20;;;;;;;1.03;0.30;;;2.60;81.40;;;;;;6190599;23;20367;-87
2021/01/16 08:02:16;;;;;;;2.43;1.03;;;2.50;81.70;;;;;;6162921;23;20012;-88
2021/01/16 08:05:17;;;;;;;2.73;1.10;;;2.50;81.90;;;;;;6180551;23;20009;-88
2021/01/16 08:08:07;;;;;;;3.50;0.68;;;2.60;81.80;;;;;;6189598;23;20000;-87
2021/01/16 08:10:33;;;;;;;3.17;0.93;;;2.60;81.40;;;;;;6191691;23;19996;-88
2021/01/16 08:13:00;;;;;;;0.60;0.33;;;2.70;81.30;;;;;;6191856;23;20284;-88
2021/01/16 08:15:30;;;;;;;2.57;1.33;;;2.70;81.20;;;;;;6190720;23;20028;-88
2021/01/16 08:18:00;;;;;;;4.03;1.03;;;2.70;81.20;;;;;;6189080;23;20392;-87
2021/01/16 08:20:30;;;;;;;2.60;1.10;;;2.80;81.30;;;;;;6164659;23;20007;-87
2021/01/16 08:22:57;;;;;;;3.40;0.97;;;2.80;81.20;;;;;;6218744;23;20289;-88
2021/01/16 08:25:27;;;;;;;5.17;1.13;;;2.80;81.00;;;;;;6165731;23;20228;-87
2021/01/16 08:27:58;;;;;;;0.38;0.10;;;2.90;80.90;;;;;;6192365;23;19997;-88
2021/01/16 08:30:26;;;;;;;2.58;0.70;;;2.90;80.90;;;;;;6190053;23;20005;-88
2021/01/16 08:32:59;;;;;;;1.27;0.57;;;3.00;81.00;;;;;;6165210;23;20000;-88
2021/01/16 08:35:41;;;;;;;2.00;1.57;;;3.00;80.90;;;;;;6165337;23;20004;-89
2021/01/16 08:38:17;;;;;;;1.97;0.73;;;3.00;80.90;;;;;;6195241;23;19992;-90
2021/01/16 08:41:06;;;;;;;3.37;1.40;;;3.10;80.90;;;;;;6217317;23;19993;-89
2021/01/16 08:43:36;;;;;;;1.60;0.57;;;3.10;81.00;;;;;;6215141;23;20012;-90
2021/01/16 08:46:06;;;;;;;0.40;0.30;;;3.20;80.80;;;;;;6190253;23;20411;-90
2021/01/16 08:48:32;;;;;;;3.13;0.60;;;3.20;80.70;;;;;;6195654;23;19997;-90
2021/01/16 08:50:59;;;;;;;0.77;0.47;;;3.20;80.70;;;;;;6195866;23;20012;-89
2021/01/16 08:53:25;;;;;;;2.03;1.07;;;3.20;80.70;;;;;;6169643;23;20007;-89
2021/01/16 08:55:51;;;;;;;3.73;0.93;;;3.40;80.50;;;;;;6170867;23;20014;-88
2021/01/16 08:58:18;;;;;;;2.07;0.73;;;3.40;80.30;;;;;;6171159;23;20001;-89
2021/01/16 09:00:44;;;;;;;1.47;0.83;;;3.40;80.30;;;;;;6195811;23;20008;-88
2021/01/16 09:03:19;;;;;;;1.43;0.53;;;3.40;80.40;;;;;;6167294;23;19997;-90
2021/01/16 09:05:47;;;;;;;1.70;0.87;;;3.50;80.40;;;;;;6196916;23;20001;-90
2021/01/16 09:08:24;;;;;;;0.87;0.73;;;3.50;80.40;;;;;;6170879;23;20024;-90
2021/01/16 09:10:51;;;;;;;1.47;0.80;;;3.50;80.30;;;;;;6168335;23;20007;-86
2021/01/16 09:13:30;;;;;;;2.67;0.90;;;3.50;80.30;;;;;;6192491;23;20003;-88
2021/01/16 09:15:57;;;;;;;2.53;1.50;;;3.60;80.20;;;;;;6191941;23;20016;-90
2021/01/16 09:18:24;;;;;;;1.03;0.53;;;3.60;80.00;;;;;;6191874;23;20000;-90
2021/01/16 09:20:54;;;;;;;1.83;0.90;;;3.70;80.10;;;;;;6192511;23;20008;-90
2021/01/16 09:23:36;;;;;;;0.53;0.50;;;3.70;80.10;;;;;;6190391;23;20245;-91
2021/01/16 09:26:05;;;;;;;1.57;0.73;;;3.70;80.10;;;;;;6193117;23;20284;-90
2021/01/16 09:28:51;;;;;;;0.87;0.30;;;3.70;80.20;;;;;;6195127;23;20005;-90
2021/01/16 09:31:21;;;;;;;0.90;0.43;;;3.70;80.20;;;;;;6167498;23;20016;-92
2021/01/16 09:33:49;;;;;;;0.87;0.53;;;3.70;80.10;;;;;;6198485;23;19993;-92
2021/01/16 09:36:57;;;;;;;5.20;1.03;;;3.70;80.10;;;;;;6198924;23;20056;-91
2021/01/16 09:39:23;;;;;;;1.43;0.80;;;3.70;80.10;;;;;;6155461;23;20170;-92
2021/01/16 09:42:13;;;;;;;2.57;0.87;;;3.70;80.10;;;;;;6157781;23;19997;-89
2021/01/16 09:44:43;;;;;;;3.80;0.83;;;3.70;80.30;;;;;;6194809;23;20011;-91
2021/01/16 09:47:28;;;;;;;1.90;0.70;;;3.70;80.30;;;;;;6194463;23;20009;-90
2021/01/16 09:50:01;;;;;;;0.77;0.20;;;3.80;80.30;;;;;;6179813;23;20001;-90
2021/01/16 09:52:28;;;;;;;5.40;0.97;;;3.70;80.20;;;;;;6203997;23;19981;-90
2021/01/16 09:54:54;;;;;;;0.67;0.53;;;3.60;80.40;;;;;;6178659;23;20185;-91
2021/01/16 09:57:33;;;;;;;0.97;0.83;;;3.50;80.70;;;;;;6180705;23;20023;-88
2021/01/16 10:00:17;;;;;;;1.03;0.63;;;3.50;80.90;;;;;;6181990;23;19993;-89
2021/01/16 10:02:44;;;;;;;1.80;0.20;;;3.40;80.90;;;;;;6158479;23;20005;-89
2021/01/16 10:05:31;;;;;;;1.03;0.73;;;3.40;80.90;;;;;;6183753;23;20064;-89
2021/01/16 10:07:57;;;;;;;4.30;1.90;;;3.50;80.90;;;;;;6182847;23;20005;-88
2021/01/16 10:10:24;;;;;;;3.97;1.13;;;3.60;80.70;;;;;;6180759;23;20368;-89
2021/01/16 10:12:58;;;;;;;3.67;1.50;;;3.70;80.40;;;;;;6138668;23;20001;-88
2021/01/16 10:15:33;;;;;;;1.77;1.13;;;3.80;80.00;;;;;;6136251;23;20017;-89
2021/01/16 10:17:59;;;;;;;1.77;0.77;;;3.90;79.90;;;;;;6137992;23;20265;-88
2021/01/16 10:20:35;;;;;;;1.47;0.93;;;4.00;79.80;;;;;;6163482;23;20024;-88
2021/01/16 10:23:07;;;;;;;4.23;1.93;;;4.00;79.60;;;;;;6186632;23;20005;-89
2021/01/16 10:25:41;;;;;;;1.90;0.63;;;4.10;79.60;;;;;;6161560;23;20269;-88
2021/01/16 10:28:29;;;;;;;1.83;0.83;;;4.20;79.60;;;;;;6160864;23;20036;-87
2021/01/16 10:31:00;;;;;;;6.97;0.90;;;4.30;79.50;;;;;;6166504;23;20005;-87
2021/01/16 10:33:47;;;;;;;3.75;0.60;;;4.40;79.30;;;;;;6137484;23;20016;-89
2021/01/16 10:36:18;;;;;;;1.37;0.43;;;4.50;79.20;;;;;;6186149;23;20001;-90
2021/01/16 10:38:51;;;;;;;2.13;1.02;;;4.50;78.90;;;;;;6163117;23;20004;-88
2021/01/16 10:41:35;;;;;;;1.03;0.73;;;4.60;78.80;;;;;;6164955;23;20005;-88
2021/01/16 10:44:05;;;;;;;3.80;1.40;;;4.60;78.80;;;;;;6164988;23;20261;-89
2021/01/16 10:46:45;;;;;;;1.23;0.50;;;4.70;78.90;;;;;;6135765;23;20400;-88
2021/01/16 10:49:22;;;;;;;5.67;1.20;;;4.70;78.80;;;;;;6168042;23;20009;-93
2021/01/16 10:51:58;;;;;;;5.00;1.47;;;4.80;78.70;;;;;;6195466;23;20004;-90
2021/01/16 10:54:27;;;;;;;0.97;0.33;;;4.90;78.60;;;;;;6219643;23;20000;-87
2021/01/16 10:57:03;;;;;;;5.87;1.40;;;5.00;78.50;;;;;;6167874;23;20024;-88
2021/01/16 10:59:34;;;;;;;2.07;1.63;;;5.00;78.30;;;;;;6195691;23;19992;-88
2021/01/16 11:02:11;;;;;;;1.85;0.65;;;5.00;78.30;;;;;;6192431;23;20116;-91
2021/01/16 11:04:45;;;;;;;0.90;0.63;;;5.00;78.50;;;;;;6176674;23;20014;-91
2021/01/16 11:07:25;;;;;;;3.47;1.60;;;5.00;78.60;;;;;;6167688;23;20279;-90
2021/01/16 11:10:05;;;;;;;4.47;1.17;;;5.00;78.70;;;;;;6209051;23;19989;-88
2021/01/16 11:12:32;;;;;;;0.67;0.50;;;5.10;78.70;;;;;;6211449;23;20000;-91
2021/01/16 11:15:01;;;;;;;1.87;0.93;;;5.20;78.70;;;;;;6209853;23;20191;-89
2021/01/16 11:17:50;;;;;;;1.53;0.77;;;5.20;78.60;;;;;;6209748;23;20005;-91
2021/01/16 11:20:26;;;;;;;1.97;0.70;;;5.30;78.60;;;;;;6191623;23;20052;-90
2021/01/16 11:23:12;;;;;;;16.30;0.93;;;5.30;78.50;;;;;;6190385;23;20060;-90
2021/01/16 11:25:42;;;;;;;0.77;0.43;;;5.40;78.50;;;;;;6214626;23;20044;-92
2021/01/16 11:28:09;;;;;;;1.87;1.00;;;5.50;78.50;;;;;;6217255;23;20044;-91
2021/01/16 11:30:43;;;;;;;1.50;0.87;;;5.40;78.40;;;;;;6194557;23;20019;-92
2021/01/16 11:33:24;;;;;;;0.47;0.27;;;5.50;78.30;;;;;;6193824;23;19996;-91
2021/01/16 11:36:15;;;;;;;0.45;0.38;;;5.60;78.20;;;;;;6194302;23;20012;-91
2021/01/16 11:38:43;;;;;;;1.17;0.55;;;5.70;78.20;;;;;;6215431;23;20418;-92
2021/01/16 11:41:17;;;;;;;1.03;0.37;;;5.70;78.00;;;;;;6165170;23;20267;-92
2021/01/16 11:43:43;;;;;;;0.73;0.20;;;5.80;78.00;;;;;;6166936;23;20003;-89
2021/01/16 11:46:11;;;;;;;0.83;0.43;;;5.90;78.00;;;;;;6163471;23;20020;-90
2021/01/16 11:49:09;;;;;;;3.10;0.47;;;5.90;77.90;;;;;;6190871;23;20000;-93
2021/01/16 11:51:39;;;;;;;0.90;0.70;;;6.00;77.90;;;;;;6165885;23;20017;-90
2021/01/16 11:54:06;;;;;;;9.20;0.90;;;6.10;77.90;;;;;;6165848;23;20001;-93
2021/01/16 11:59:29;;;;;;;;;;;6.10;77.70;;;;;;6193418;23;20004;-92
2021/01/16 12:02:11;;;;;;;;;;;6.20;77.60;;;;;;6160510;23;19912;-93
2021/01/16 12:04:42;;;;;;;1.97;0.60;;;6.20;77.60;;;;;;6160557;23;19900;-88
2021/01/16 12:07:16;;;;;;;5.00;1.33;;;6.30;77.50;;;;;;6190474;23;20001;-89
2021/01/16 12:09:43;;;;;;;9.90;1.50;;;6.40;77.40;;;;;;6104131;23;20005;-89
2021/01/16 12:12:22;;;;;;;8.67;2.30;;;6.40;77.30;;;;;;6126637;23;20001;-87
2021/01/16 12:14:56;;;;;;;1.90;0.83;;;6.50;77.30;;;;;;6125997;23;20306;-90
2021/01/16 12:17:27;;;;;;;1.80;0.30;;;6.60;77.20;;;;;;6134412;23;20405;-88
2021/01/16 12:19:54;;;;;;;0.90;0.43;;;6.70;77.10;;;;;;6105026;23;20005;-87
2021/01/16 12:22:21;;;;;;;2.30;0.57;;;6.70;77.10;;;;;;6118503;23;20405;-91
2021/01/16 12:24:47;;;;;;;2.43;0.63;;;6.80;77.10;;;;;;6126642;23;20002;-87
2021/01/16 12:27:14;;;;;;;0.30;0.10;;;6.90;77.00;;;;;;6152717;23;20009;-88
2021/01/16 12:29:41;;;;;;;4.97;1.00;;;7.00;76.90;;;;;;6126920;23;20012;-89
2021/01/16 12:32:14;;;;;;;1.17;0.20;;;7.10;76.80;;;;;;6127091;23;20013;-88
2021/01/16 12:34:51;;;;;;;0.23;0.10;;;7.20;76.80;;;;;;6152311;23;20404;-87
2021/01/16 12:37:32;;;;;;;0.30;0.10;;;7.20;76.80;;;;;;6125132;23;20006;-86
2021/01/16 12:39:59;;;;;;;;;;;7.30;76.70;;;;;;6165314;23;20011;-88
2021/01/16 12:42:25;;;;;;;1.27;0.20;;;7.40;76.60;;;;;;6188187;23;19925;-88
2021/01/16 12:44:53;;;;;;;0.70;0.30;;;7.40;76.60;;;;;;6164977;23;20275;-89
2021/01/16 12:47:34;;;;;;;0.37;0.23;;;7.40;76.70;;;;;;6156019;23;20031;-88
2021/01/16 12:52:53;;;;;;;0.00;0.00;;;7.40;77.20;;;;;;6203287;23;20013;-87
2021/01/16 12:55:21;;;;;;;1.07;0.43;;;7.40;77.30;;;;;;6191289;23;20224;-91
2021/01/16 12:57:50;;;;;;;3.57;1.10;;;7.40;77.50;;;;;;6166206;23;19997;-88
2021/01/16 13:00:18;;;;;;;1.80;0.43;;;7.50;77.50;;;;;;6189044;23;20356;-89
2021/01/16 13:02:45;;;;;;;1.07;0.40;;;7.50;77.50;;;;;;6163476;23;20005;-88
2021/01/16 13:05:12;;;;;;;4.37;0.90;;;7.60;77.50;;;;;;6191092;23;19996;-87
2021/01/16 13:07:39;;;;;;;0.10;0.10;;;7.60;77.40;;;;;;6195517;23;20001;-87
2021/01/16 13:10:07;;;;;;;0.27;0.10;;;7.60;77.40;;;;;;6167922;23;20015;-88
2021/01/16 13:12:35;;;;;;;0.87;0.30;;;7.70;77.50;;;;;;6192551;23;20009;-89
2021/01/16 13:15:04;;;;;;;0.60;0.30;;;7.70;77.50;;;;;;6170221;23;20028;-90
2021/01/16 13:17:32;;;;;;;1.27;0.20;;;7.70;77.50;;;;;;6168773;23;20326;-89
2021/01/16 13:20:03;;;;;;;0.60;0.20;;;7.80;77.70;;;;;;6165960;23;20009;-89
2021/01/16 13:22:43;;;;;;;0.20;0.15;;;7.80;77.60;;;;;;6168859;23;20001;-90